Station Historical Data
Daily Summary for November 23, 2017 Units:  English    Metric   Both
« Previous Day
Next Day »
Daily Weekly Monthly Yearly Custom
  High: Low: Average:
Temperature: 38.1 °F 25.2 °F 33.2 °F
Dew Point: 27.4 °F 18.1 °F 23.9 °F
Humidity: 76% 63% 69%
Wind Speed: 12.0mph 0.0mph 3mph
Wind Gust: 16.0mph - -
Wind- - SW
Pressure: 30.22 in 29.97 in -
Precipitation: 0.00 in    
Historical Graphs
 
 
Tabular Data for November 23, 2017
Time Temperature Dew Point Pressure Wind Wind Speed Wind Gust Humidity Rainfall Rate (Hourly)
00:04 25.2 °F 18.1 °F 30.21 in Calm     74% 0.00 in
00:14 25.3 °F 18.5 °F 30.22 in Calm     75% 0.00 in
00:34 26.1 °F 18.9 °F 30.22 in Calm     74% 0.00 in
00:39 26.5 °F 19.0 °F 30.21 in Calm     73% 0.00 in
00:44 26.9 °F 19.1 °F 30.21 in Calm   2.0 mph 72% 0.00 in
00:54 27.5 °F 19.3 °F 30.21 in WSW 1.0 mph 3.0 mph 71% 0.00 in
01:09 28.2 °F 19.3 °F 30.20 in West 2.0 mph 4.0 mph 69% 0.00 in
01:14 28.4 °F 19.2 °F 30.20 in West 2.0 mph 4.0 mph 68% 0.00 in
01:19 28.5 °F 19.3 °F 30.20 in WSW 2.0 mph 4.0 mph 68% 0.00 in
01:34 28.8 °F 19.2 °F 30.19 in WNW 1.0 mph 3.0 mph 67% 0.00 in
01:39 28.8 °F 19.2 °F 30.19 in WNW 1.0 mph 3.0 mph 67% 0.00 in
01:44 28.8 °F 19.6 °F 30.20 in WNW 2.0 mph 3.0 mph 68% 0.00 in
01:49 28.8 °F 19.6 °F 30.20 in WNW 1.0 mph 4.0 mph 68% 0.00 in
01:54 28.9 °F 19.3 °F 30.19 in West 1.0 mph 4.0 mph 67% 0.00 in
02:04 29.1 °F 19.5 °F 30.19 in West 2.0 mph 4.0 mph 67% 0.00 in
02:09 29.2 °F 19.6 °F 30.19 in WNW 1.0 mph 4.0 mph 67% 0.00 in
02:14 29.2 °F 19.6 °F 30.20 in Calm   4.0 mph 67% 0.00 in
02:19 29.2 °F 19.9 °F 30.19 in WNW 1.0 mph 3.0 mph 68% 0.00 in
02:24 29.4 °F 19.8 °F 30.20 in WNW 4.0 mph 5.0 mph 67% 0.00 in
02:29 29.5 °F 19.9 °F 30.20 in WNW 2.0 mph 6.0 mph 67% 0.00 in
02:39 29.7 °F 19.7 °F 30.20 in SW 4.0 mph 7.0 mph 66% 0.00 in
02:49 29.9 °F 19.9 °F 30.20 in West 3.0 mph 8.0 mph 66% 0.00 in
03:04 30.0 °F 19.7 °F 30.20 in West 4.0 mph 8.0 mph 65% 0.00 in
03:09 30.0 °F 19.3 °F 30.20 in WSW 3.0 mph 8.0 mph 64% 0.00 in
03:29 30.0 °F 19.7 °F 30.19 in Calm   2.0 mph 65% 0.00 in
03:34 30.0 °F 19.7 °F 30.19 in WNW 1.0 mph 2.0 mph 65% 0.00 in
03:44 30.1 °F 19.7 °F 30.19 in WNW 2.0 mph 4.0 mph 65% 0.00 in
03:49 30.1 °F 19.7 °F 30.18 in Calm   4.0 mph 65% 0.00 in
03:54 30.1 °F 19.7 °F 30.18 in WNW 1.0 mph 4.0 mph 65% 0.00 in
03:59 30.3 °F 19.9 °F 30.18 in Calm   4.0 mph 65% 0.00 in
04:04 30.3 °F 19.9 °F 30.18 in West 1.0 mph 4.0 mph 65% 0.00 in
04:09 30.3 °F 19.9 °F 30.18 in West 2.0 mph 4.0 mph 65% 0.00 in
04:14 30.3 °F 19.6 °F 30.18 in West 2.0 mph 4.0 mph 64% 0.00 in
04:19 30.3 °F 19.9 °F 30.17 in West 1.0 mph 3.0 mph 65% 0.00 in
04:29 30.3 °F 19.9 °F 30.17 in WNW 2.0 mph 4.0 mph 65% 0.00 in
04:34 30.3 °F 19.6 °F 30.17 in West 3.0 mph 5.0 mph 64% 0.00 in
04:39 30.4 °F 19.7 °F 30.17 in WNW 1.0 mph 4.0 mph 64% 0.00 in
04:44 30.4 °F 19.7 °F 30.17 in Calm   6.0 mph 64% 0.00 in
04:49 30.4 °F 19.7 °F 30.17 in West 3.0 mph 7.0 mph 64% 0.00 in
04:54 30.4 °F 19.7 °F 30.17 in West 2.0 mph 7.0 mph 64% 0.00 in
04:59 30.4 °F 19.7 °F 30.16 in WSW 3.0 mph 7.0 mph 64% 0.00 in
05:04 30.4 °F 19.7 °F 30.17 in WSW 3.0 mph 7.0 mph 64% 0.00 in
05:09 30.3 °F 19.9 °F 30.16 in West 2.0 mph 5.0 mph 65% 0.00 in
05:14 30.3 °F 19.9 °F 30.16 in West 1.0 mph 4.0 mph 65% 0.00 in
05:24 30.2 °F 19.8 °F 30.16 in WSW 1.0 mph 3.0 mph 65% 0.00 in
05:29 30.3 °F 19.9 °F 30.16 in WSW 1.0 mph 4.0 mph 65% 0.00 in
05:34 30.3 °F 19.9 °F 30.16 in WSW 2.0 mph 5.0 mph 65% 0.00 in
05:49 30.5 °F 20.1 °F 30.16 in WSW 3.0 mph 5.0 mph 65% 0.00 in
05:54 30.5 °F 20.1 °F 30.16 in Calm   5.0 mph 65% 0.00 in
05:59 30.5 °F 20.1 °F 30.15 in WSW 2.0 mph 5.0 mph 65% 0.00 in
06:04 30.6 °F 19.9 °F 30.15 in WSW 2.0 mph 7.0 mph 64% 0.00 in
06:14 30.4 °F 20.7 °F 30.15 in WSW 1.0 mph 4.0 mph 67% 0.00 in
06:24 29.9 °F 21.0 °F 30.15 in Calm   3.0 mph 69% 0.00 in
06:29 29.8 °F 21.2 °F 30.14 in Calm     70% 0.00 in
06:34 29.7 °F 21.4 °F 30.14 in Calm     71% 0.00 in
06:39 29.6 °F 21.7 °F 30.14 in Calm     72% 0.00 in
06:44 29.5 °F 21.6 °F 30.14 in Calm   3.0 mph 72% 0.00 in
06:49 29.4 °F 21.8 °F 30.14 in Calm     73% 0.00 in
06:54 29.4 °F 21.8 °F 30.14 in Calm   2.0 mph 73% 0.00 in
06:59 29.4 °F 21.8 °F 30.14 in Calm   2.0 mph 73% 0.00 in
07:04 29.4 °F 22.1 °F 30.14 in Calm   2.0 mph 74% 0.00 in
07:14 29.4 °F 22.1 °F 30.14 in Calm     74% 0.00 in
07:34 29.3 °F 22.0 °F 30.14 in Calm     74% 0.00 in
07:39 29.4 °F 22.1 °F 30.14 in Calm     74% 0.00 in
07:49 29.4 °F 22.1 °F 30.14 in Calm     74% 0.00 in
07:59 29.6 °F 22.3 °F 30.15 in Calm     74% 0.00 in
08:04 29.7 °F 22.4 °F 30.15 in SSW 1.0 mph 3.0 mph 74% 0.00 in
08:19 30.0 °F 22.7 °F 30.15 in SSW 1.0 mph 3.0 mph 74% 0.00 in
08:24 30.2 °F 22.9 °F 30.15 in SSW 1.0 mph 4.0 mph 74% 0.00 in
08:29 30.3 °F 22.7 °F 30.15 in SSW 1.0 mph 4.0 mph 73% 0.00 in
08:39 30.4 °F 22.8 °F 30.16 in Calm   3.0 mph 73% 0.00 in
08:44 30.4 °F 22.8 °F 30.15 in Calm   3.0 mph 73% 0.00 in
08:49 30.5 °F 23.2 °F 30.15 in Calm     74% 0.00 in
08:54 30.6 °F 23.3 °F 30.15 in Calm     74% 0.00 in
09:04 30.6 °F 23.3 °F 30.15 in Calm     74% 0.00 in
09:09 30.5 °F 23.2 °F 30.15 in Calm   2.0 mph 74% 0.00 in
09:14 30.6 °F 23.3 °F 30.15 in Calm   2.0 mph 74% 0.00 in
09:19 30.6 °F 23.3 °F 30.14 in Calm     74% 0.00 in
09:24 30.6 °F 23.3 °F 30.14 in Calm     74% 0.00 in
09:29 30.7 °F 23.4 °F 30.14 in Calm     74% 0.00 in
09:34 30.8 °F 23.8 °F 30.14 in SSW 1.0 mph 2.0 mph 75% 0.00 in
09:49 30.9 °F 23.6 °F 30.13 in SSW 1.0 mph 4.0 mph 74% 0.00 in
09:54 30.9 °F 23.9 °F 30.13 in SSW 1.0 mph 4.0 mph 75% 0.00 in
09:59 31.0 °F 23.7 °F 30.13 in Calm   3.0 mph 74% 0.00 in
10:04 31.1 °F 23.8 °F 30.13 in Calm   3.0 mph 74% 0.00 in
10:09 31.2 °F 24.2 °F 30.12 in Calm   2.0 mph 75% 0.00 in
10:14 31.2 °F 24.2 °F 30.12 in South 3.0 mph 4.0 mph 75% 0.00 in
10:19 31.3 °F 24.3 °F 30.12 in South 2.0 mph 5.0 mph 75% 0.00 in
10:24 31.3 °F 24.0 °F 30.12 in South 2.0 mph 5.0 mph 74% 0.00 in
10:29 31.4 °F 24.4 °F 30.11 in South 2.0 mph 5.0 mph 75% 0.00 in
10:39 31.6 °F 24.6 °F 30.11 in South 2.0 mph 5.0 mph 75% 0.00 in
10:54 32.1 °F 25.4 °F 30.10 in South 2.0 mph 5.0 mph 76% 0.00 in
11:04 32.5 °F 25.5 °F 30.10 in SSW 3.0 mph 5.0 mph 75% 0.00 in
11:09 32.6 °F 25.6 °F 30.10 in SSW 3.0 mph 6.0 mph 75% 0.00 in
11:14 32.7 °F 25.6 °F 30.10 in South 2.0 mph 3.0 mph 75% 0.00 in
11:19 32.8 °F 25.7 °F 30.09 in SSW 7.0 mph 7.0 mph 75% 0.00 in
11:24 32.9 °F 25.8 °F 30.08 in South 2.0 mph 7.0 mph 75% 0.00 in
11:29 32.8 °F 25.7 °F 30.08 in South 3.0 mph 7.0 mph 75% 0.00 in
11:34 32.7 °F 25.6 °F 30.08 in South 3.0 mph 6.0 mph 75% 0.00 in
11:39 32.7 °F 25.6 °F 30.08 in SSE 3.0 mph 6.0 mph 75% 0.00 in
11:44 32.8 °F 25.7 °F 30.08 in South 2.0 mph 5.0 mph 75% 0.00 in
11:49 32.8 °F 25.7 °F 30.08 in SSW 3.0 mph 5.0 mph 75% 0.00 in
11:59 33.0 °F 25.9 °F 30.07 in SSW 3.0 mph 8.0 mph 75% 0.00 in
12:04 33.0 °F 25.9 °F 30.07 in SSW 3.0 mph 6.0 mph 75% 0.00 in
12:14 33.0 °F 25.6 °F 30.06 in SW 2.0 mph 8.0 mph 74% 0.00 in
12:19 33.0 °F 25.6 °F 30.06 in SSW 4.0 mph 6.0 mph 74% 0.00 in
12:24 33.0 °F 25.9 °F 30.06 in SSW 4.0 mph 5.0 mph 75% 0.00 in
12:34 33.0 °F 25.9 °F 30.05 in SSW 3.0 mph 7.0 mph 75% 0.00 in
12:39 33.1 °F 26.0 °F 30.05 in SSW 3.0 mph 7.0 mph 75% 0.00 in
12:49 33.3 °F 25.9 °F 30.04 in South 3.0 mph 7.0 mph 74% 0.00 in
12:54 33.3 °F 25.9 °F 30.04 in South 3.0 mph 7.0 mph 74% 0.00 in
12:59 33.4 °F 26.0 °F 30.04 in South 3.0 mph 6.0 mph 74% 0.00 in
13:04 33.5 °F 26.1 °F 30.03 in South 2.0 mph 6.0 mph 74% 0.00 in
13:09 33.6 °F 26.2 °F 30.03 in Calm   3.0 mph 74% 0.00 in
13:24 34.2 °F 26.8 °F 30.03 in SW 4.0 mph 8.0 mph 74% 0.00 in
13:29 34.5 °F 27.1 °F 30.03 in SSW 3.0 mph 9.0 mph 74% 0.00 in
13:39 34.8 °F 26.7 °F 30.02 in SSW 4.0 mph 10.0 mph 72% 0.00 in
13:49 34.7 °F 26.3 °F 30.02 in SSW 5.0 mph 11.0 mph 71% 0.00 in
13:54 34.7 °F 26.3 °F 30.02 in SSW 5.0 mph 12.0 mph 71% 0.00 in
14:04 34.8 °F 26.4 °F 30.01 in SSW 5.0 mph 12.0 mph 71% 0.00 in
14:09 34.8 °F 26.0 °F 30.01 in SSW 4.0 mph 10.0 mph 70% 0.00 in
14:14 34.8 °F 26.0 °F 30.01 in SSW 5.0 mph 10.0 mph 70% 0.00 in
14:24 34.9 °F 26.1 °F 30.00 in SW 4.0 mph 8.0 mph 70% 0.00 in
14:29 35.0 °F 26.2 °F 30.00 in SW 2.0 mph 9.0 mph 70% 0.00 in
14:39 35.1 °F 26.3 °F 30.00 in SSW 4.0 mph 10.0 mph 70% 0.00 in
14:44 35.2 °F 26.4 °F 29.99 in SSW 4.0 mph 10.0 mph 70% 0.00 in
14:49 35.3 °F 26.5 °F 29.99 in SSW 5.0 mph 11.0 mph 70% 0.00 in
14:54 35.5 °F 26.3 °F 29.99 in SSW 5.0 mph 11.0 mph 69% 0.00 in
14:59 35.6 °F 26.4 °F 29.99 in SSW 5.0 mph 10.0 mph 69% 0.00 in
15:04 35.6 °F 26.4 °F 29.98 in SSW 5.0 mph 10.0 mph 69% 0.00 in
15:14 35.8 °F 26.6 °F 29.98 in SW 4.0 mph 10.0 mph 69% 0.00 in
15:19 35.9 °F 26.4 °F 29.98 in SSW 5.0 mph 12.0 mph 68% 0.00 in
15:24 36.0 °F 26.5 °F 29.99 in SW 4.0 mph 9.0 mph 68% 0.00 in
15:29 36.1 °F 26.9 °F 29.99 in WSW 3.0 mph 8.0 mph 69% 0.00 in
15:34 36.3 °F 27.4 °F 29.99 in SW 5.0 mph 11.0 mph 70% 0.00 in
15:39 36.6 °F 27.4 °F 29.99 in SW 6.0 mph 12.0 mph 69% 0.00 in
15:44 36.7 °F 27.1 °F 29.99 in SSW 6.0 mph 15.0 mph 68% 0.00 in
15:49 36.7 °F 27.1 °F 29.99 in SW 6.0 mph 15.0 mph 68% 0.00 in
15:59 36.8 °F 26.9 °F 29.98 in SW 2.0 mph 12.0 mph 67% 0.00 in
16:04 36.7 °F 26.8 °F 29.98 in WSW 8.0 mph 10.0 mph 67% 0.00 in
16:09 36.7 °F 26.8 °F 29.98 in SSW 12.0 mph 12.0 mph 67% 0.00 in
16:14 36.6 °F 26.7 °F 29.98 in WSW 8.0 mph 12.0 mph 67% 0.00 in
16:19 36.6 °F 26.7 °F 29.98 in South 5.0 mph 14.0 mph 67% 0.00 in
16:29 36.5 °F 26.6 °F 29.98 in South 3.0 mph 10.0 mph 67% 0.00 in
16:34 36.5 °F 26.6 °F 29.98 in South 8.0 mph 13.0 mph 67% 0.00 in
16:44 36.5 °F 26.6 °F 29.97 in SSW 6.0 mph 11.0 mph 67% 0.00 in
16:49 36.4 °F 26.5 °F 29.98 in SSW 6.0 mph 15.0 mph 67% 0.00 in
16:54 36.4 °F 26.5 °F 29.97 in SW 6.0 mph 15.0 mph 67% 0.00 in
16:59 36.4 °F 26.5 °F 29.97 in SSW 5.0 mph 11.0 mph 67% 0.00 in
17:04 36.4 °F 26.5 °F 29.97 in SSW 5.0 mph 11.0 mph 67% 0.00 in
17:09 36.3 °F 26.4 °F 29.97 in SW 11.0 mph 11.0 mph 67% 0.00 in
17:14 36.3 °F 26.4 °F 29.97 in SSW 7.0 mph 12.0 mph 67% 0.00 in
17:24 36.3 °F 26.0 °F 29.97 in SW 5.0 mph 13.0 mph 66% 0.00 in
17:29 36.3 °F 26.0 °F 29.98 in SSW 11.0 mph 12.0 mph 66% 0.00 in
17:44 36.4 °F 26.1 °F 29.98 in SW 6.0 mph 16.0 mph 66% 0.00 in
17:49 36.3 °F 26.0 °F 29.98 in SSW 5.0 mph 16.0 mph 66% 0.00 in
17:54 36.3 °F 26.0 °F 29.98 in SW 5.0 mph 15.0 mph 66% 0.00 in
18:04 36.3 °F 26.0 °F 29.98 in SW 4.0 mph 11.0 mph 66% 0.00 in
18:09 36.3 °F 25.7 °F 29.99 in SW 5.0 mph 12.0 mph 65% 0.00 in
18:14 36.4 °F 25.7 °F 29.98 in SW 1.0 mph 8.0 mph 65% 0.00 in
18:19 36.4 °F 25.4 °F 29.98 in SW 4.0 mph 10.0 mph 64% 0.00 in
18:29 36.4 °F 25.4 °F 29.99 in SW 5.0 mph 10.0 mph 64% 0.00 in
18:34 36.5 °F 25.5 °F 29.99 in SW 4.0 mph 10.0 mph 64% 0.00 in
18:39 36.5 °F 25.1 °F 29.99 in SW 5.0 mph 11.0 mph 63% 0.00 in
18:44 36.4 °F 25.4 °F 29.99 in SW 4.0 mph 11.0 mph 64% 0.00 in
18:49 36.5 °F 25.5 °F 29.99 in SSW 5.0 mph 10.0 mph 64% 0.00 in
18:54 36.4 °F 25.4 °F 29.99 in SW 5.0 mph 10.0 mph 64% 0.00 in
18:59 36.4 °F 25.4 °F 29.99 in South 5.0 mph 10.0 mph 64% 0.00 in
19:04 36.4 °F 25.4 °F 29.99 in South 2.0 mph 8.0 mph 64% 0.00 in
19:09 36.3 °F 25.3 °F 29.99 in SSW 3.0 mph 8.0 mph 64% 0.00 in
19:14 36.3 °F 25.3 °F 29.99 in SSW 3.0 mph 8.0 mph 64% 0.00 in
19:29 36.3 °F 25.3 °F 29.99 in SSW 3.0 mph 9.0 mph 64% 0.00 in
19:49 36.4 °F 25.4 °F 29.99 in SSW 4.0 mph 11.0 mph 64% 0.00 in
19:54 36.4 °F 25.7 °F 29.99 in SSW 7.0 mph 9.0 mph 65% 0.00 in
19:59 36.4 °F 25.7 °F 29.99 in SW 3.0 mph 9.0 mph 65% 0.00 in
20:04 36.4 °F 25.4 °F 29.99 in South 5.0 mph 11.0 mph 64% 0.00 in
20:09 36.5 °F 25.5 °F 29.99 in SSW 3.0 mph 9.0 mph 64% 0.00 in
20:14 36.5 °F 25.5 °F 29.99 in SSW 4.0 mph 9.0 mph 64% 0.00 in
20:19 36.4 °F 25.4 °F 29.99 in SSW 4.0 mph 10.0 mph 64% 0.00 in
20:29 36.4 °F 25.4 °F 29.99 in South 5.0 mph 7.0 mph 64% 0.00 in
20:34 36.5 °F 25.5 °F 30.00 in SW 8.0 mph 8.0 mph 64% 0.00 in
20:39 36.5 °F 25.1 °F 29.99 in SSW 4.0 mph 9.0 mph 63% 0.00 in
20:49 36.4 °F 25.0 °F 29.99 in SSW 3.0 mph 10.0 mph 63% 0.00 in
20:54 36.4 °F 25.0 °F 29.99 in SSW 4.0 mph 10.0 mph 63% 0.00 in
21:04 36.4 °F 25.0 °F 29.98 in SSW 6.0 mph 9.0 mph 63% 0.00 in
21:14 36.5 °F 25.1 °F 29.98 in SSW 5.0 mph 9.0 mph 63% 0.00 in
21:19 36.5 °F 25.1 °F 29.98 in SSW 5.0 mph 11.0 mph 63% 0.00 in
21:29 36.6 °F 25.2 °F 29.98 in SSW 7.0 mph 11.0 mph 63% 0.00 in
21:34 36.7 °F 25.3 °F 29.98 in SSW 3.0 mph 12.0 mph 63% 0.00 in
21:39 36.8 °F 25.4 °F 29.98 in WSW 6.0 mph 12.0 mph 63% 0.00 in
21:44 36.8 °F 25.8 °F 29.98 in SSW 5.0 mph 12.0 mph 64% 0.00 in
21:49 36.9 °F 25.5 °F 29.98 in SSW 5.0 mph 13.0 mph 63% 0.00 in
21:54 37.0 °F 25.9 °F 29.98 in SSW 5.0 mph 13.0 mph 64% 0.00 in
22:09 37.2 °F 26.1 °F 29.97 in SSW 5.0 mph 11.0 mph 64% 0.00 in
22:14 37.3 °F 26.2 °F 29.97 in SSW 6.0 mph 11.0 mph 64% 0.00 in
22:19 37.4 °F 26.3 °F 29.98 in SSW 6.0 mph 11.0 mph 64% 0.00 in
22:24 37.4 °F 26.3 °F 29.97 in SW 5.0 mph 8.0 mph 64% 0.00 in
22:29 37.4 °F 26.7 °F 29.97 in SSW 4.0 mph 11.0 mph 65% 0.00 in
22:34 37.4 °F 26.7 °F 29.97 in SSW 6.0 mph 10.0 mph 65% 0.00 in
22:39 37.5 °F 26.8 °F 29.97 in WSW 5.0 mph 12.0 mph 65% 0.00 in
22:44 37.6 °F 26.9 °F 29.97 in SW 5.0 mph 11.0 mph 65% 0.00 in
22:54 37.7 °F 27.0 °F 29.97 in SW 5.0 mph 12.0 mph 65% 0.00 in
22:59 37.9 °F 26.8 °F 29.97 in SW 6.0 mph 12.0 mph 64% 0.00 in
23:04 37.9 °F 26.8 °F 29.98 in SSW 5.0 mph 9.0 mph 64% 0.00 in
23:14 37.9 °F 26.8 °F 29.98 in SW 3.0 mph 12.0 mph 64% 0.00 in
23:24 37.9 °F 26.8 °F 29.98 in SW 5.0 mph 9.0 mph 64% 0.00 in
23:29 38.0 °F 26.9 °F 29.98 in WSW 4.0 mph 9.0 mph 64% 0.00 in
23:34 38.0 °F 26.9 °F 29.98 in WSW 4.0 mph 8.0 mph 64% 0.00 in
23:39 38.1 °F 27.4 °F 29.98 in West 2.0 mph 8.0 mph 65% 0.00 in
23:49 38.1 °F 27.4 °F 29.98 in SW 4.0 mph 10.0 mph 65% 0.00 in
23:54 38.1 °F 27.4 °F 29.98 in SW 4.0 mph 10.0 mph 65% 0.00 in
Buffalo, New York, USA
Compliments of Weather Underground - 2 mb